createdAt,value
2018-06-13T00:01:02.014Z,25.54
2018-06-13T00:02:01.994Z,25.56
2018-06-13T00:03:01.989Z,25.51
2018-06-13T00:04:01.958Z,25.46
2018-06-13T00:05:02.015Z,25.44
2018-06-13T00:06:02.001Z,25.49
2018-06-13T00:07:01.951Z,25.44
2018-06-13T00:08:01.992Z,25.44
2018-06-13T00:09:01.981Z,25.41
2018-06-13T00:10:01.968Z,25.49
2018-06-13T00:23:27.543Z,25.51
2018-06-13T00:24:27.867Z,25.43
2018-06-13T00:25:27.536Z,25.48
2018-06-13T00:26:27.656Z,25.49
2018-06-13T00:27:27.421Z,25.46
2018-06-13T00:28:27.455Z,25.51
2018-06-13T00:29:27.566Z,25.41
2018-06-13T00:30:27.408Z,25.49
2018-06-13T00:31:27.490Z,25.44
2018-06-13T00:32:27.486Z,25.49
2018-06-13T00:33:27.480Z,25.52
2018-06-13T00:34:27.473Z,25.48
2018-06-13T00:35:27.493Z,25.46
2018-06-13T00:36:27.580Z,25.46
2018-06-13T00:37:27.491Z,25.49
2018-06-13T00:38:27.463Z,25.54
2018-06-13T00:39:27.671Z,25.48
2018-06-13T00:40:27.614Z,25.49
2018-06-13T00:41:27.692Z,25.44
2018-06-13T00:42:27.618Z,25.49
2018-06-13T00:43:27.690Z,25.52
2018-06-13T00:44:27.686Z,25.49
2018-06-13T00:45:27.605Z,25.52
2018-06-13T00:46:27.700Z,25.44
2018-06-13T00:47:27.757Z,25.46
2018-06-13T00:48:27.682Z,25.49
2018-06-13T00:49:27.687Z,25.48
2018-06-13T00:50:27.724Z,25.48
2018-06-13T00:51:27.699Z,25.51
2018-06-13T00:52:27.698Z,25.46
2018-06-13T00:53:27.648Z,25.48
2018-06-13T00:54:27.722Z,25.49
2018-06-13T00:55:27.683Z,25.55
2018-06-13T00:56:27.825Z,25.54
2018-06-13T00:57:27.618Z,25.44
2018-06-13T00:58:27.653Z,25.4
2018-06-13T00:59:27.679Z,25.46
2018-06-13T01:00:27.713Z,25.49
2018-06-13T01:01:27.613Z,25.48
2018-06-13T01:02:27.697Z,25.44
2018-06-13T01:03:27.676Z,25.44
2018-06-13T01:04:27.642Z,25.46
2018-06-13T01:05:27.641Z,25.48
2018-06-13T01:06:27.756Z,25.58
2018-06-13T01:07:27.718Z,25.41
2018-06-13T01:08:27.710Z,25.54
2018-06-13T01:09:27.697Z,25.52
2018-06-13T01:10:27.700Z,25.48
2018-06-13T01:11:27.755Z,25.49
2018-06-13T01:12:27.782Z,25.51
2018-06-13T01:13:27.726Z,25.44
2018-06-13T01:14:27.753Z,25.54
2018-06-13T01:15:27.730Z,25.46
2018-06-13T01:16:27.712Z,25.48
2018-06-13T01:17:27.749Z,25.44
2018-06-13T01:18:27.676Z,25.54
2018-06-13T01:19:27.694Z,25.48
2018-06-13T01:20:27.642Z,25.46
2018-06-13T01:21:27.747Z,25.48
2018-06-13T01:22:27.724Z,25.49
2018-06-13T01:23:27.661Z,25.43
2018-06-13T01:24:27.700Z,25.46
2018-06-13T01:25:27.756Z,25.46
2018-06-13T01:26:27.729Z,25.52
2018-06-13T01:27:27.718Z,25.43
2018-06-13T01:28:27.765Z,25.48
2018-06-13T01:29:27.767Z,25.44
2018-06-13T01:30:27.748Z,25.43
2018-06-13T01:31:27.719Z,25.43
2018-06-13T01:32:27.737Z,25.52
2018-06-13T01:33:27.805Z,25.52
2018-06-13T01:34:27.721Z,25.49
2018-06-13T01:35:27.711Z,25.52
2018-06-13T01:36:27.791Z,25.48
2018-06-13T01:37:27.723Z,25.52
2018-06-13T01:38:27.784Z,25.44
2018-06-13T01:39:27.704Z,25.48
2018-06-13T01:40:27.744Z,25.49
2018-06-13T01:41:27.779Z,25.54
2018-06-13T01:42:27.783Z,25.48
2018-06-13T01:43:27.772Z,25.52
2018-06-13T01:44:27.769Z,25.48
2018-06-13T01:45:27.758Z,25.52
2018-06-13T01:48:35.076Z,25.41
2018-06-13T01:48:46.561Z,25.48
2018-06-13T01:49:46.897Z,25.54
2018-06-13T01:50:46.550Z,25.52
2018-06-13T01:51:46.556Z,25.43
2018-06-13T01:52:46.579Z,25.46
2018-06-13T01:53:46.622Z,25.48
2018-06-13T01:54:46.555Z,25.52
2018-06-13T01:55:46.560Z,25.48
2018-06-13T01:56:46.568Z,25.51
2018-06-13T01:57:46.524Z,25.55
2018-06-13T01:58:46.543Z,25.49
2018-06-13T01:59:46.579Z,25.48
2018-06-13T02:00:46.590Z,25.46
2018-06-13T02:01:46.563Z,25.41
2018-06-13T02:02:46.585Z,25.51
2018-06-13T02:03:46.600Z,25.44
2018-06-13T02:04:46.582Z,25.51
2018-06-13T02:05:46.571Z,25.54
2018-06-13T02:06:46.604Z,25.49
2018-06-13T02:07:46.583Z,25.44
2018-06-13T02:08:46.635Z,25.46
2018-06-13T02:09:46.596Z,25.46
2018-06-13T02:10:46.552Z,25.52
2018-06-13T02:11:46.678Z,25.43
2018-06-13T02:12:46.615Z,25.52
2018-06-13T02:13:46.621Z,25.43
2018-06-13T02:14:46.618Z,25.52
2018-06-13T02:15:46.610Z,25.46
2018-06-13T02:16:46.644Z,25.43
2018-06-13T02:17:46.549Z,25.48
2018-06-13T02:18:46.572Z,25.51
2018-06-13T02:19:46.600Z,25.44
2018-06-13T02:20:46.570Z,25.43
2018-06-13T02:21:46.628Z,25.44
2018-06-13T02:22:46.684Z,25.48
2018-06-13T02:23:46.698Z,25.46
2018-06-13T02:24:46.661Z,25.52
2018-06-13T02:25:46.652Z,25.44
2018-06-13T02:26:46.730Z,25.44
2018-06-13T02:27:46.673Z,25.36
2018-06-13T02:28:46.611Z,25.46
2018-06-13T02:29:46.609Z,25.49
2018-06-13T02:30:46.607Z,25.41
2018-06-13T02:31:46.626Z,25.43
2018-06-13T02:32:46.612Z,25.43
2018-06-13T02:33:46.656Z,25.52
2018-06-13T02:34:46.608Z,25.48
2018-06-13T02:35:46.620Z,25.48
2018-06-13T02:36:46.687Z,25.44
2018-06-13T02:37:46.640Z,25.54
2018-06-13T02:38:46.651Z,25.46
2018-06-13T02:39:46.631Z,25.46
2018-06-13T02:40:46.611Z,25.43
2018-06-13T02:41:46.694Z,25.41
2018-06-13T02:42:46.641Z,25.43
2018-06-13T02:43:46.639Z,25.4
2018-06-13T02:44:46.665Z,25.36
2018-06-13T02:45:46.674Z,25.4
2018-06-13T02:46:46.650Z,25.41
2018-06-13T02:47:46.660Z,25.43
2018-06-13T02:48:46.722Z,25.41
2018-06-13T02:49:46.673Z,25.48
2018-06-13T02:50:46.658Z,25.48
2018-06-13T02:51:46.754Z,25.43
2018-06-13T02:52:46.696Z,25.4
2018-06-13T02:53:46.837Z,25.4
2018-06-13T02:54:46.712Z,25.4
2018-06-13T02:55:46.697Z,25.41
2018-06-13T02:56:46.743Z,25.41
2018-06-13T02:57:46.637Z,25.43
2018-06-13T02:58:46.728Z,25.43
2018-06-13T02:59:46.665Z,25.43
2018-06-13T03:00:46.692Z,25.41
2018-06-13T03:01:46.721Z,25.43
2018-06-13T03:02:46.660Z,25.46
2018-06-13T03:03:46.694Z,25.44
2018-06-13T03:04:46.664Z,25.44
2018-06-13T03:05:46.670Z,25.44
2018-06-13T03:06:46.647Z,25.4
2018-06-13T03:07:46.707Z,25.43
2018-06-13T03:08:46.696Z,25.46
2018-06-13T03:09:46.703Z,25.43
2018-06-13T03:10:46.676Z,25.39
2018-06-13T03:11:46.739Z,25.41
2018-06-13T03:12:46.692Z,25.43
2018-06-13T03:13:46.648Z,25.39
2018-06-13T03:14:46.788Z,25.41
2018-06-13T03:15:46.715Z,25.44
2018-06-13T03:16:46.759Z,25.39
2018-06-13T03:17:46.718Z,25.51
2018-06-13T03:18:46.691Z,25.44
2018-06-13T03:19:46.717Z,25.39
2018-06-13T03:20:46.739Z,25.46
2018-06-13T03:21:46.724Z,25.44
2018-06-13T03:22:46.793Z,25.48
2018-06-13T03:23:46.712Z,25.39
2018-06-13T03:24:46.721Z,25.44
2018-06-13T03:25:46.728Z,25.4
2018-06-13T03:26:46.791Z,25.51
2018-06-13T03:27:46.709Z,25.44
2018-06-13T03:28:46.716Z,25.41
2018-06-13T03:29:46.739Z,25.41
2018-06-13T03:30:46.818Z,25.43
2018-06-13T03:31:46.742Z,25.4
2018-06-13T03:32:46.746Z,25.39
2018-06-13T03:33:46.722Z,25.43
2018-06-13T03:34:46.762Z,25.41
2018-06-13T03:35:46.740Z,25.43
2018-06-13T03:36:46.756Z,25.49
2018-06-13T03:37:46.730Z,25.44
2018-06-13T03:38:46.754Z,25.44
2018-06-13T03:39:46.744Z,25.43
2018-06-13T03:40:46.721Z,25.39
2018-06-13T03:41:46.800Z,25.44
2018-06-13T03:42:46.784Z,25.37
2018-06-13T03:43:46.714Z,25.33
2018-06-13T03:44:46.810Z,25.43
2018-06-13T03:45:46.738Z,25.43
2018-06-13T03:46:46.785Z,25.31
2018-06-13T03:47:46.792Z,25.49
2018-06-13T03:48:46.724Z,25.43
2018-06-13T03:49:46.714Z,25.41
2018-06-13T03:50:46.737Z,25.39
2018-06-13T03:51:46.742Z,25.39
2018-06-13T03:52:46.721Z,25.41
2018-06-13T03:53:46.752Z,25.37
2018-06-13T03:54:46.758Z,25.4
2018-06-13T03:55:47.357Z,25.43
2018-06-13T03:56:46.772Z,25.48
2018-06-13T03:57:46.782Z,25.29
2018-06-13T03:58:46.785Z,25.33
2018-06-13T03:59:46.770Z,25.41
2018-06-13T04:00:46.768Z,25.39
2018-06-13T04:01:46.822Z,25.31
2018-06-13T04:02:46.769Z,25.4
2018-06-13T04:03:46.765Z,25.41
2018-06-13T04:04:46.797Z,25.41
2018-06-13T04:05:46.755Z,25.44
2018-06-13T04:06:46.810Z,25.3
2018-06-13T04:07:46.766Z,25.31
2018-06-13T04:08:46.743Z,25.46
2018-06-13T04:09:46.756Z,25.34
2018-06-13T04:10:46.817Z,25.43
2018-06-13T04:11:46.848Z,25.34
2018-06-13T04:12:46.808Z,25.4
2018-06-13T04:13:46.865Z,25.48
2018-06-13T04:14:46.813Z,25.37
2018-06-13T04:15:46.776Z,25.46
2018-06-13T04:16:46.805Z,25.44
2018-06-13T04:17:46.776Z,25.3
2018-06-13T04:18:46.843Z,25.44
2018-06-13T04:19:46.794Z,25.33
2018-06-13T04:20:46.798Z,25.26
2018-06-13T04:21:46.827Z,25.3
2018-06-13T04:22:46.839Z,25.34
2018-06-13T04:23:46.818Z,25.34
2018-06-13T04:24:46.802Z,25.43
2018-06-13T04:25:46.789Z,25.31
2018-06-13T04:26:46.838Z,25.26
2018-06-13T04:27:46.825Z,25.4
2018-06-13T04:28:46.802Z,25.37
2018-06-13T04:29:46.808Z,25.49
2018-06-13T04:30:46.874Z,25.34
2018-06-13T04:31:46.871Z,25.41
2018-06-13T04:32:46.906Z,25.36
2018-06-13T04:33:46.941Z,25.46
2018-06-13T04:34:46.790Z,25.37
2018-06-13T04:35:46.909Z,25.26
2018-06-13T04:36:46.883Z,25.29
2018-06-13T04:37:46.836Z,25.33
2018-06-13T04:38:46.893Z,25.26
2018-06-13T04:39:46.844Z,25.41
2018-06-13T04:40:46.880Z,25.31
2018-06-13T04:41:46.863Z,25.25
2018-06-13T04:42:46.918Z,25.26
2018-06-13T04:43:46.798Z,25.41
2018-06-13T04:44:46.851Z,25.33
2018-06-13T04:45:46.883Z,25.3
2018-06-13T04:46:46.843Z,25.4
2018-06-13T04:47:46.844Z,25.33
2018-06-13T04:48:46.956Z,25.3
2018-06-13T04:49:46.835Z,25.3
2018-06-13T04:50:46.847Z,25.3
2018-06-13T04:51:46.845Z,25.31
2018-06-13T04:52:46.904Z,25.37
2018-06-13T04:54:21.707Z,25.37
2018-06-13T04:54:46.888Z,25.31
2018-06-13T04:55:46.831Z,25.29
2018-06-13T04:56:46.863Z,25.3
2018-06-13T04:57:46.887Z,25.26
2018-06-13T04:58:46.922Z,25.26
2018-06-13T04:59:46.876Z,25.39
2018-06-13T05:00:46.878Z,25.31
2018-06-13T05:01:46.893Z,25.4
2018-06-13T05:02:46.944Z,25.34
2018-06-13T05:03:46.897Z,25.39
2018-06-13T05:04:46.878Z,25.25
2018-06-13T05:05:46.886Z,25.36
2018-06-13T05:06:46.870Z,25.3
2018-06-13T05:07:46.854Z,25.36
2018-06-13T05:08:46.945Z,25.31
2018-06-13T05:09:46.918Z,25.33
2018-06-13T05:10:47.555Z,25.39
2018-06-13T05:11:46.908Z,25.31
2018-06-13T05:12:47.635Z,25.31
2018-06-13T05:13:46.913Z,25.37
2018-06-13T05:14:47.012Z,25.34
2018-06-13T05:15:46.873Z,25.34
2018-06-13T05:16:46.890Z,25.34
2018-06-13T05:17:46.918Z,25.34
2018-06-13T05:18:46.967Z,25.34
2018-06-13T05:19:46.899Z,25.37
2018-06-13T05:20:46.934Z,25.34
2018-06-13T05:21:46.915Z,25.26
2018-06-13T05:22:46.899Z,25.33
2018-06-13T05:23:46.934Z,25.25
2018-06-13T05:24:46.907Z,25.34
2018-06-13T05:25:46.912Z,25.26
2018-06-13T05:26:46.930Z,25.36
2018-06-13T05:27:46.959Z,25.36
2018-06-13T05:28:47.036Z,25.3
2018-06-13T05:29:47.886Z,25.36
2018-06-13T05:30:46.921Z,25.29
2018-06-13T05:31:46.923Z,25.26
2018-06-13T05:32:46.940Z,25.34
2018-06-13T05:33:47.024Z,25.39
2018-06-13T05:34:46.920Z,25.4
2018-06-13T05:35:46.900Z,25.39
2018-06-13T05:36:46.958Z,25.26
2018-06-13T05:37:46.972Z,25.24
2018-06-13T05:38:47.006Z,25.3
2018-06-13T05:39:46.900Z,25.29
2018-06-13T05:40:46.940Z,25.39
2018-06-13T05:41:47.049Z,25.31
2018-06-13T05:42:46.946Z,25.3
2018-06-13T05:43:47.040Z,25.31
2018-06-13T05:44:47.002Z,25.31
2018-06-13T05:45:46.946Z,25.26
2018-06-13T05:46:47.002Z,25.26
2018-06-13T05:47:46.979Z,25.34
2018-06-13T05:48:46.966Z,25.26
2018-06-13T05:49:46.997Z,25.26
2018-06-13T05:50:46.926Z,25.25
2018-06-13T05:51:46.955Z,25.34
2018-06-13T05:52:46.958Z,25.26
2018-06-13T05:53:46.953Z,25.3
2018-06-13T05:54:47.024Z,25.25
2018-06-13T05:55:46.992Z,25.29
2018-06-13T05:59:08.164Z,25.31
2018-06-13T06:00:07.448Z,25.25
2018-06-13T06:01:07.503Z,25.22
2018-06-13T06:02:07.448Z,25.24
2018-06-13T06:03:07.433Z,25.26
2018-06-13T06:04:07.471Z,25.24
2018-06-13T06:05:07.526Z,25.3
2018-06-13T06:06:07.439Z,25.26
2018-06-13T06:07:07.447Z,25.3
2018-06-13T06:08:07.643Z,25.21
2018-06-13T06:09:07.635Z,25.24
2018-06-13T06:10:07.619Z,25.29
2018-06-13T06:11:07.663Z,25.29
2018-06-13T06:12:07.623Z,25.19
2018-06-13T06:13:07.627Z,25.18
2018-06-13T06:14:07.670Z,25.29
2018-06-13T06:15:07.685Z,25.24
2018-06-13T06:16:07.621Z,25.39
2018-06-13T06:17:07.653Z,25.24
2018-06-13T06:18:07.667Z,25.29
2018-06-13T06:19:07.836Z,25.26
2018-06-13T06:20:07.648Z,25.22
2018-06-13T06:21:07.631Z,25.29
2018-06-13T06:22:07.620Z,25.31
2018-06-13T06:23:07.696Z,25.21
2018-06-13T06:24:07.623Z,25.24
2018-06-13T06:25:07.774Z,25.36
2018-06-13T06:26:07.587Z,25.34
2018-06-13T06:27:07.658Z,25.22
2018-06-13T06:28:07.588Z,25.33
2018-06-13T06:29:07.602Z,25.24
2018-06-13T06:30:07.655Z,25.31
2018-06-13T06:31:07.636Z,25.34
2018-06-13T06:32:07.646Z,25.37
2018-06-13T06:33:07.657Z,25.22
2018-06-13T06:34:07.603Z,25.29
2018-06-13T06:35:07.668Z,25.26
2018-06-13T06:36:07.724Z,25.3
2018-06-13T06:37:07.662Z,25.22
2018-06-13T06:38:07.711Z,25.25
2018-06-13T06:39:07.712Z,25.34
2018-06-13T06:40:07.727Z,25.33
2018-06-13T06:41:07.715Z,25.3
2018-06-13T06:42:07.778Z,25.24
2018-06-13T06:43:07.643Z,25.25
2018-06-13T06:44:07.655Z,25.25
2018-06-13T06:45:07.778Z,25.26
2018-06-13T06:46:07.744Z,25.31
2018-06-13T06:47:07.694Z,25.24
2018-06-13T06:48:07.828Z,25.26
2018-06-13T06:49:07.743Z,25.3
2018-06-13T06:50:07.777Z,25.3
2018-06-13T06:51:07.717Z,25.25
2018-06-13T06:52:07.723Z,25.24
2018-06-13T06:53:07.793Z,25.33
2018-06-13T06:54:07.725Z,25.26
2018-06-13T06:55:07.786Z,25.29
2018-06-13T06:56:07.729Z,25.26
2018-06-13T06:57:07.742Z,25.3
2018-06-13T06:58:07.739Z,25.31
2018-06-13T06:59:07.727Z,25.25
2018-06-13T07:00:07.781Z,25.31
2018-06-13T07:01:07.735Z,25.3
2018-06-13T07:02:07.715Z,25.33
2018-06-13T07:03:07.744Z,25.31
2018-06-13T07:04:07.723Z,25.29
2018-06-13T07:05:07.788Z,25.24
2018-06-13T07:06:07.710Z,25.26
2018-06-13T07:07:07.803Z,25.3
2018-06-13T07:08:07.813Z,25.29
2018-06-13T07:09:07.787Z,25.33
2018-06-13T07:10:07.772Z,25.3
2018-06-13T07:11:07.769Z,25.3
2018-06-13T07:12:07.836Z,25.31
2018-06-13T07:13:07.795Z,25.34
2018-06-13T07:14:07.741Z,25.33
2018-06-13T07:15:07.772Z,25.22
2018-06-13T07:16:07.783Z,25.34
2018-06-13T07:17:07.816Z,25.31
2018-06-13T07:18:07.742Z,25.26
2018-06-13T07:19:07.845Z,25.22
2018-06-13T07:20:07.783Z,25.25
2018-06-13T07:21:07.787Z,25.29
2018-06-13T07:22:07.821Z,25.29
2018-06-13T07:23:07.818Z,25.24
2018-06-13T07:24:07.785Z,25.24
2018-06-13T07:25:07.869Z,25.3
2018-06-13T07:26:07.813Z,25.25
2018-06-13T07:27:07.878Z,25.3
2018-06-13T07:28:07.797Z,25.33
2018-06-13T07:29:07.862Z,25.26
2018-06-13T07:30:24.229Z,25.3
2018-06-13T07:31:24.189Z,25.25
2018-06-13T07:32:24.201Z,25.26
2018-06-13T07:33:24.144Z,25.22
2018-06-13T07:34:24.158Z,25.3
2018-06-13T07:35:24.202Z,25.29
2018-06-13T07:36:24.202Z,25.29
2018-06-13T07:37:24.196Z,25.25
2018-06-13T07:38:24.239Z,25.3
2018-06-13T07:39:24.215Z,25.24
2018-06-13T07:40:24.171Z,25.26
2018-06-13T07:41:24.230Z,25.24
2018-06-13T07:42:24.258Z,25.33
2018-06-13T07:43:24.173Z,25.24
2018-06-13T07:44:24.225Z,25.3
2018-06-13T07:45:24.259Z,25.18
2018-06-13T07:46:24.255Z,25.22
2018-06-13T07:47:24.211Z,25.29
2018-06-13T07:48:24.252Z,25.21
2018-06-13T07:49:24.196Z,25.29
2018-06-13T07:50:24.238Z,25.25
2018-06-13T07:51:24.244Z,25.24
2018-06-13T07:52:24.223Z,25.33
2018-06-13T07:53:24.225Z,25.29
2018-06-13T07:54:24.248Z,25.26
2018-06-13T07:55:24.272Z,25.22
2018-06-13T07:56:24.308Z,25.22
2018-06-13T07:57:24.236Z,25.22
2018-06-13T07:58:24.310Z,25.26
2018-06-13T07:59:24.255Z,25.25
2018-06-13T08:00:24.275Z,25.25
2018-06-13T08:01:24.235Z,25.22
2018-06-13T08:02:24.362Z,25.29
2018-06-13T08:03:24.232Z,25.19
2018-06-13T08:04:24.289Z,25.22
2018-06-13T08:05:24.273Z,25.29
2018-06-13T08:06:24.269Z,25.29
2018-06-13T08:07:24.271Z,25.26
2018-06-13T08:08:24.397Z,25.24
2018-06-13T08:09:24.222Z,25.22
2018-06-13T08:10:24.227Z,25.26
2018-06-13T08:11:24.267Z,25.25
2018-06-13T08:12:24.245Z,25.21
2018-06-13T08:13:24.339Z,25.24
2018-06-13T08:14:24.276Z,25.26
2018-06-13T08:15:24.266Z,25.24
2018-06-13T08:16:24.273Z,25.26
2018-06-13T08:17:24.286Z,25.22
2018-06-13T08:18:24.261Z,25.24
2018-06-13T08:19:24.263Z,25.19
2018-06-13T08:20:24.248Z,25.25
2018-06-13T08:21:24.299Z,25.29
2018-06-13T08:22:24.289Z,25.31
2018-06-13T08:23:24.296Z,25.29
2018-06-13T08:24:24.288Z,25.25
2018-06-13T08:25:24.332Z,25.24
2018-06-13T08:26:24.280Z,25.22
2018-06-13T08:27:24.293Z,25.29
2018-06-13T08:28:24.267Z,25.31
2018-06-13T08:29:24.331Z,25.19
2018-06-13T08:30:24.283Z,25.25
2018-06-13T08:31:24.300Z,25.26
2018-06-13T08:32:24.256Z,25.21
2018-06-13T08:33:24.284Z,25.21
2018-06-13T08:34:24.315Z,25.25
2018-06-13T08:35:24.337Z,25.29
2018-06-13T08:36:24.388Z,25.22
2018-06-13T08:37:24.259Z,25.29
2018-06-13T08:38:24.283Z,25.21
2018-06-13T08:39:24.296Z,25.22
2018-06-13T08:40:24.302Z,25.25
2018-06-13T08:41:24.330Z,25.31
2018-06-13T08:42:24.281Z,25.21
2018-06-13T08:43:24.348Z,25.26
2018-06-13T08:44:24.279Z,25.26
2018-06-13T08:45:40.402Z,25.22
2018-06-13T08:46:40.367Z,25.24
2018-06-13T08:47:40.449Z,25.26
2018-06-13T08:48:40.493Z,25.33
2018-06-13T08:49:40.402Z,25.21
2018-06-13T08:50:40.726Z,25.25
2018-06-13T08:51:40.362Z,25.26
2018-06-13T08:52:40.410Z,25.26
2018-06-13T08:53:40.442Z,25.24
2018-06-13T08:54:40.385Z,25.29
2018-06-13T08:55:40.500Z,25.25
2018-06-13T08:56:40.410Z,25.21
2018-06-13T08:57:40.391Z,25.26
2018-06-13T08:58:40.418Z,25.3
2018-06-13T08:59:40.427Z,25.31
2018-06-13T09:00:40.510Z,25.3
2018-06-13T09:01:40.470Z,25.31
2018-06-13T09:02:40.466Z,25.21
2018-06-13T09:03:40.520Z,25.26
2018-06-13T09:04:40.504Z,25.29
2018-06-13T09:05:40.481Z,25.18
2018-06-13T09:06:40.484Z,25.26
2018-06-13T09:07:40.469Z,25.22
2018-06-13T09:08:40.450Z,25.26
2018-06-13T09:09:40.483Z,25.31
2018-06-13T09:10:40.517Z,25.26
2018-06-13T09:11:40.499Z,25.4
2018-06-13T09:12:40.428Z,25.29
2018-06-13T09:13:40.458Z,25.3
2018-06-13T09:14:40.478Z,25.22
2018-06-13T09:15:40.451Z,25.3
2018-06-13T09:16:40.448Z,25.19
2018-06-13T09:17:40.441Z,25.29
2018-06-13T09:18:40.517Z,25.3
2018-06-13T09:19:40.446Z,25.26
2018-06-13T09:20:40.452Z,25.26
2018-06-13T09:21:40.487Z,25.29
2018-06-13T09:22:40.532Z,25.26
2018-06-13T09:23:40.506Z,25.26
2018-06-13T09:24:40.478Z,25.29
2018-06-13T09:25:40.484Z,25.24
2018-06-13T09:26:40.441Z,25.26
2018-06-13T09:27:40.525Z,25.22
2018-06-13T09:28:40.484Z,25.19
2018-06-13T09:29:40.459Z,25.26
2018-06-13T09:30:40.492Z,25.29
2018-06-13T09:31:40.430Z,25.25
2018-06-13T09:32:40.483Z,25.25
2018-06-13T09:33:40.471Z,25.26
2018-06-13T09:34:40.501Z,25.24
2018-06-13T09:35:40.470Z,25.21
2018-06-13T09:40:58.349Z,25.24
2018-06-13T09:41:09.796Z,25.29
2018-06-13T09:42:09.765Z,25.22
2018-06-13T09:43:09.727Z,25.3
2018-06-13T09:44:09.839Z,25.25
2018-06-13T09:45:09.801Z,25.24
2018-06-13T09:46:12.015Z,25.25
2018-06-13T09:47:15.138Z,25.26
2018-06-13T09:48:09.845Z,25.26
2018-06-13T09:49:09.894Z,25.16
2018-06-13T09:50:09.867Z,25.3
2018-06-13T09:51:09.834Z,25.24
2018-06-13T09:52:09.786Z,25.3
2018-06-13T09:53:10.459Z,25.29
2018-06-13T09:54:09.777Z,25.25
2018-06-13T09:55:09.789Z,25.29
2018-06-13T09:56:09.821Z,25.21
2018-06-13T09:57:10.397Z,25.19
2018-06-13T09:58:09.824Z,25.3
2018-06-13T09:59:09.797Z,25.26
2018-06-13T10:00:09.869Z,25.22
2018-06-13T10:01:09.794Z,25.19
2018-06-13T10:02:09.993Z,25.22
2018-06-13T10:03:09.806Z,25.19
2018-06-13T10:04:10.454Z,25.26
2018-06-13T10:05:09.875Z,25.24
2018-06-13T10:06:09.850Z,25.25
2018-06-13T10:07:09.793Z,25.24
2018-06-13T10:08:09.801Z,25.26
2018-06-13T10:09:09.911Z,25.29
2018-06-13T10:10:09.908Z,25.26
2018-06-13T10:11:09.844Z,25.24
2018-06-13T10:12:09.867Z,25.22
2018-06-13T10:13:10.001Z,25.29
2018-06-13T10:14:09.880Z,25.29
2018-06-13T10:15:09.889Z,25.25
2018-06-13T10:16:10.398Z,25.29
2018-06-13T10:17:09.873Z,25.16
2018-06-13T10:18:09.891Z,25.25
2018-06-13T10:19:09.889Z,25.22
2018-06-13T10:20:10.609Z,25.26
2018-06-13T10:21:09.887Z,25.25
2018-06-13T10:22:10.002Z,25.22
2018-06-13T10:23:09.888Z,25.33
2018-06-13T10:24:11.359Z,25.29
2018-06-13T10:25:10.561Z,25.29
2018-06-13T10:26:09.857Z,25.29
2018-06-13T10:27:09.974Z,25.25
2018-06-13T10:28:09.880Z,25.24
2018-06-13T10:29:09.872Z,25.24
2018-06-13T10:30:09.931Z,25.24
2018-06-13T10:31:09.866Z,25.19
2018-06-13T10:32:09.874Z,25.21
2018-06-13T10:33:09.900Z,25.21
2018-06-13T10:34:09.904Z,25.29
2018-06-13T10:35:10.003Z,25.24
2018-06-13T10:36:09.928Z,25.18
2018-06-13T10:37:09.899Z,25.24
2018-06-13T10:38:09.906Z,25.22
2018-06-13T10:39:10.854Z,25.22
2018-06-13T10:40:10.541Z,25.19
2018-06-13T10:41:09.908Z,25.3
2018-06-13T10:42:09.954Z,25.25
2018-06-13T10:43:09.831Z,25.24
2018-06-13T10:44:10.685Z,25.26
2018-06-13T10:45:09.973Z,25.22
2018-06-13T10:46:09.889Z,25.3
2018-06-13T10:47:10.448Z,25.26
2018-06-13T10:48:10.541Z,25.22
2018-06-13T10:49:09.909Z,25.29
2018-06-13T10:50:10.635Z,25.29
2018-06-13T10:51:09.939Z,25.29
2018-06-13T10:52:10.557Z,25.25
2018-06-13T10:53:10.596Z,25.25
2018-06-13T10:54:09.903Z,25.22
2018-06-13T10:55:10.066Z,25.26
2018-06-13T10:56:09.979Z,25.21
2018-06-13T10:57:10.567Z,25.29
2018-06-13T10:58:10.011Z,25.24
2018-06-13T10:59:09.986Z,25.25
2018-06-13T11:00:09.953Z,25.3
2018-06-13T11:01:09.943Z,25.29
2018-06-13T11:02:10.007Z,25.25
2018-06-13T11:03:10.249Z,25.29
2018-06-13T11:04:09.918Z,25.22
2018-06-13T11:05:09.902Z,25.24
2018-06-13T11:06:09.911Z,25.24
2018-06-13T11:07:10.475Z,25.22
2018-06-13T11:08:10.559Z,25.25
2018-06-13T11:09:10.513Z,25.26
2018-06-13T11:10:10.649Z,25.22
2018-06-13T11:11:09.965Z,25.25
2018-06-13T11:12:09.976Z,25.29
2018-06-13T11:13:09.950Z,25.25
2018-06-13T11:14:09.984Z,25.24
2018-06-13T11:15:09.922Z,25.24
2018-06-13T11:16:10.031Z,25.26
2018-06-13T11:17:09.953Z,25.25
2018-06-13T11:18:09.967Z,25.3
2018-06-13T11:19:09.961Z,25.29
2018-06-13T11:20:10.023Z,25.25
2018-06-13T11:21:09.930Z,25.3
2018-06-13T11:22:09.964Z,25.25
2018-06-13T11:23:09.929Z,25.24
2018-06-13T11:24:09.957Z,25.24
2018-06-13T11:25:10.531Z,25.24
2018-06-13T11:26:10.109Z,25.22
2018-06-13T11:27:10.001Z,25.24
2018-06-13T11:28:10.070Z,25.22
2018-06-13T11:29:09.952Z,25.26
2018-06-13T11:30:09.990Z,25.24
2018-06-13T11:31:09.915Z,25.24
2018-06-13T11:32:10.003Z,25.26
2018-06-13T11:33:10.004Z,25.29
2018-06-13T11:34:10.011Z,25.26
2018-06-13T11:35:10.025Z,25.25
2018-06-13T11:36:09.974Z,25.3
2018-06-13T11:37:10.629Z,25.19
2018-06-13T11:38:10.048Z,25.22
2018-06-13T11:39:09.967Z,25.3
2018-06-13T11:40:10.022Z,25.26
2018-06-13T11:41:10.088Z,25.26
2018-06-13T11:42:10.043Z,25.22
2018-06-13T11:46:38.944Z,25.25
2018-06-13T11:47:38.832Z,25.31
2018-06-13T11:48:38.804Z,25.24
2018-06-13T11:49:38.783Z,25.25
2018-06-13T11:50:38.823Z,25.33
2018-06-13T11:51:39.003Z,25.31
2018-06-13T11:52:38.830Z,25.25
2018-06-13T11:53:38.997Z,25.26
2018-06-13T11:54:38.894Z,25.31
2018-06-13T11:55:38.845Z,25.3
2018-06-13T11:56:38.805Z,25.29
2018-06-13T11:57:38.907Z,25.33
2018-06-13T11:58:39.358Z,25.25
2018-06-13T11:59:38.870Z,25.25
2018-06-13T12:00:38.916Z,25.21
2018-06-13T12:01:38.848Z,25.22
2018-06-13T12:02:38.894Z,25.29
2018-06-13T12:03:38.899Z,25.19
2018-06-13T12:04:38.861Z,25.22
2018-06-13T12:05:38.859Z,25.33
2018-06-13T12:06:38.886Z,25.31
2018-06-13T12:07:38.886Z,25.22
2018-06-13T12:08:38.880Z,25.25
2018-06-13T12:09:38.864Z,25.26
2018-06-13T12:10:38.869Z,25.22
2018-06-13T12:11:39.046Z,25.22
2018-06-13T12:12:38.854Z,25.26
2018-06-13T12:13:38.843Z,25.25
2018-06-13T12:14:38.876Z,25.24
2018-06-13T12:15:38.826Z,25.26
2018-06-13T12:16:38.890Z,25.24
2018-06-13T12:17:38.915Z,25.21
2018-06-13T12:18:38.862Z,25.24
2018-06-13T12:19:38.928Z,25.25
2018-06-13T12:20:38.986Z,25.25
2018-06-13T12:21:39.089Z,25.24
2018-06-13T12:22:39.025Z,25.26
2018-06-13T12:23:38.904Z,25.26
2018-06-13T12:24:38.915Z,25.22
2018-06-13T12:25:38.976Z,25.25
2018-06-13T12:26:38.961Z,25.19
2018-06-13T12:27:38.938Z,25.24
2018-06-13T12:28:39.022Z,25.25
2018-06-13T12:29:38.932Z,25.22
2018-06-13T12:30:38.980Z,25.25
2018-06-13T12:31:38.912Z,25.26
2018-06-13T12:32:38.853Z,25.29
2018-06-13T12:33:38.911Z,25.3
2018-06-13T12:34:38.928Z,25.29
2018-06-13T12:35:39.002Z,25.24
2018-06-13T12:36:38.968Z,25.25
2018-06-13T12:37:38.920Z,25.29
2018-06-13T12:38:39.023Z,25.26
2018-06-13T12:39:38.938Z,25.21
2018-06-13T12:40:38.914Z,25.16
2018-06-13T12:41:38.990Z,25.16
2018-06-13T12:42:38.975Z,25.26
2018-06-13T12:43:38.922Z,25.29
2018-06-13T12:44:38.931Z,25.26
2018-06-13T12:45:39.052Z,25.26
2018-06-13T12:46:38.958Z,25.29
2018-06-13T12:47:39.009Z,25.26
2018-06-13T12:48:39.045Z,25.25
2018-06-13T12:49:38.940Z,25.18
2018-06-13T12:50:38.969Z,25.22
2018-06-13T12:51:39.008Z,25.19
2018-06-13T12:52:38.956Z,25.26
2018-06-13T12:53:39.021Z,25.24
2018-06-13T12:54:38.972Z,25.25
2018-06-13T12:55:39.031Z,25.18
2018-06-13T12:56:38.997Z,25.21
2018-06-13T12:57:38.990Z,25.19
2018-06-13T12:58:39.004Z,25.19
2018-06-13T12:59:38.955Z,25.3
2018-06-13T13:00:39.065Z,25.16
2018-06-13T13:01:38.992Z,25.26
2018-06-13T13:02:38.976Z,25.26
2018-06-13T13:03:38.983Z,25.25
2018-06-13T13:04:39.198Z,25.15
2018-06-13T13:05:38.974Z,25.25
2018-06-13T13:06:38.950Z,25.18
2018-06-13T13:07:39.010Z,25.16
2018-06-13T13:08:39.023Z,25.21
2018-06-13T13:09:39.082Z,25.18
2018-06-13T13:10:39.056Z,25.22
2018-06-13T13:11:39.038Z,25.25
2018-06-13T13:12:39.805Z,25.24
2018-06-13T13:13:39.017Z,25.16
2018-06-13T13:14:39.134Z,25.22
2018-06-13T13:15:39.087Z,25.25
2018-06-13T13:17:58.080Z,25.12
2018-06-13T13:18:57.970Z,25.3
2018-06-13T13:19:57.874Z,25.22